sensor_id;sensor_type;location;lat;lon;timestamp;pressure;altitude;pressure_sealevel;temperature;humidity
69528;BME280;57136;51.986;4.468;2022-12-08T00:01:11;101245.50;;;4.87;100.00
69528;BME280;57136;51.986;4.468;2022-12-08T00:03:37;101242.88;;;4.86;100.00
69528;BME280;57136;51.986;4.468;2022-12-08T00:06:04;101236.44;;;4.74;100.00
69528;BME280;57136;51.986;4.468;2022-12-08T00:08:49;101227.06;;;4.76;100.00
69528;BME280;57136;51.986;4.468;2022-12-08T00:11:33;101228.09;;;4.82;100.00
69528;BME280;57136;51.986;4.468;2022-12-08T00:13:58;101227.28;;;4.83;100.00
69528;BME280;57136;51.986;4.468;2022-12-08T00:16:24;101217.81;;;4.83;100.00
69528;BME280;57136;51.986;4.468;2022-12-08T00:18:49;101217.78;;;4.82;100.00
69528;BME280;57136;51.986;4.468;2022-12-08T00:21:14;101208.97;;;4.76;100.00
69528;BME280;57136;51.986;4.468;2022-12-08T00:23:39;101207.25;;;4.77;100.00
69528;BME280;57136;51.986;4.468;2022-12-08T00:26:05;101198.59;;;4.75;100.00
69528;BME280;57136;51.986;4.468;2022-12-08T00:28:32;101199.47;;;4.75;100.00
69528;BME280;57136;51.986;4.468;2022-12-08T00:30:57;101197.84;;;4.77;100.00
69528;BME280;57136;51.986;4.468;2022-12-08T00:33:23;101193.50;;;4.76;100.00
69528;BME280;57136;51.986;4.468;2022-12-08T00:35:48;101186.53;;;4.74;100.00
69528;BME280;57136;51.986;4.468;2022-12-08T00:38:13;101180.47;;;4.73;100.00
69528;BME280;57136;51.986;4.468;2022-12-08T00:40:45;101183.84;;;4.71;100.00
69528;BME280;57136;51.986;4.468;2022-12-08T00:43:11;101177.09;;;4.76;100.00
69528;BME280;57136;51.986;4.468;2022-12-08T00:45:36;101166.63;;;4.71;100.00
69528;BME280;57136;51.986;4.468;2022-12-08T00:48:02;101171.28;;;4.82;100.00
69528;BME280;57136;51.986;4.468;2022-12-08T00:50:27;101169.69;;;4.85;100.00
69528;BME280;57136;51.986;4.468;2022-12-08T00:52:53;101160.13;;;4.83;100.00
69528;BME280;57136;51.986;4.468;2022-12-08T00:55:18;101159.97;;;4.78;100.00
69528;BME280;57136;51.986;4.468;2022-12-08T00:57:43;101159.25;;;4.82;100.00
69528;BME280;57136;51.986;4.468;2022-12-08T01:00:09;101153.44;;;4.88;100.00
69528;BME280;57136;51.986;4.468;2022-12-08T01:02:35;101146.50;;;4.87;100.00
69528;BME280;57136;51.986;4.468;2022-12-08T01:05:00;101148.63;;;5.00;100.00
69528;BME280;57136;51.986;4.468;2022-12-08T01:07:25;101154.72;;;5.02;100.00
69528;BME280;57136;51.986;4.468;2022-12-08T01:09:51;101152.25;;;5.05;100.00
69528;BME280;57136;51.986;4.468;2022-12-08T01:12:17;101154.72;;;5.02;100.00
69528;BME280;57136;51.986;4.468;2022-12-08T01:14:42;101168.00;;;5.13;100.00
69528;BME280;57136;51.986;4.468;2022-12-08T01:17:07;101165.38;;;5.12;100.00
69528;BME280;57136;51.986;4.468;2022-12-08T01:19:32;101160.69;;;5.00;100.00
69528;BME280;57136;51.986;4.468;2022-12-08T01:21:59;101166.63;;;4.97;100.00
69528;BME280;57136;51.986;4.468;2022-12-08T01:24:24;101159.38;;;5.13;100.00
69528;BME280;57136;51.986;4.468;2022-12-08T01:26:50;101152.47;;;5.12;100.00
69528;BME280;57136;51.986;4.468;2022-12-08T01:29:15;101147.81;;;5.01;100.00
69528;BME280;57136;51.986;4.468;2022-12-08T01:31:41;101152.41;;;5.10;100.00
69528;BME280;57136;51.986;4.468;2022-12-08T01:34:07;101149.03;;;5.13;100.00
69528;BME280;57136;51.986;4.468;2022-12-08T01:36:36;101156.97;;;5.19;100.00
69528;BME280;57136;51.986;4.468;2022-12-08T01:39:04;101150.13;;;5.19;100.00
69528;BME280;57136;51.986;4.468;2022-12-08T01:41:32;101143.09;;;5.15;100.00
69528;BME280;57136;51.986;4.468;2022-12-08T01:46:32;101140.63;;;5.20;100.00
69528;BME280;57136;51.986;4.468;2022-12-08T01:51:30;101132.94;;;5.21;100.00
69528;BME280;57136;51.986;4.468;2022-12-08T01:53:57;101130.31;;;5.20;100.00
69528;BME280;57136;51.986;4.468;2022-12-08T01:56:46;101119.22;;;5.22;100.00
69528;BME280;57136;51.986;4.468;2022-12-08T01:59:16;101116.75;;;5.27;100.00
69528;BME280;57136;51.986;4.468;2022-12-08T02:01:42;101116.06;;;5.33;100.00
69528;BME280;57136;51.986;4.468;2022-12-08T02:04:08;101122.00;;;5.30;100.00
69528;BME280;57136;51.986;4.468;2022-12-08T02:06:39;101124.88;;;5.10;100.00
69528;BME280;57136;51.986;4.468;2022-12-08T02:09:05;101123.72;;;5.01;100.00
69528;BME280;57136;51.986;4.468;2022-12-08T02:11:30;101130.25;;;4.91;100.00
69528;BME280;57136;51.986;4.468;2022-12-08T02:13:56;101144.25;;;4.98;100.00
69528;BME280;57136;51.986;4.468;2022-12-08T02:16:39;101142.25;;;5.16;100.00
69528;BME280;57136;51.986;4.468;2022-12-08T02:24:33;101131.44;;;4.75;100.00
69528;BME280;57136;51.986;4.468;2022-12-08T02:30:10;101121.50;;;4.86;100.00
69528;BME280;57136;51.986;4.468;2022-12-08T02:35:28;101124.09;;;4.86;100.00
69528;BME280;57136;51.986;4.468;2022-12-08T02:41:17;101124.56;;;5.01;100.00
69528;BME280;57136;51.986;4.468;2022-12-08T02:43:54;101121.16;;;5.02;100.00
69528;BME280;57136;51.986;4.468;2022-12-08T02:46:26;101111.69;;;5.03;100.00
69528;BME280;57136;51.986;4.468;2022-12-08T02:48:52;101092.97;;;5.10;100.00
69528;BME280;57136;51.986;4.468;2022-12-08T02:51:19;101085.13;;;5.07;100.00
69528;BME280;57136;51.986;4.468;2022-12-08T02:53:45;101086.41;;;4.92;100.00
69528;BME280;57136;51.986;4.468;2022-12-08T02:59:42;101085.19;;;4.81;100.00
69528;BME280;57136;51.986;4.468;2022-12-08T03:02:41;101074.75;;;4.78;100.00
69528;BME280;57136;51.986;4.468;2022-12-08T03:10:39;101073.69;;;4.99;100.00
69528;BME280;57136;51.986;4.468;2022-12-08T03:13:10;101068.97;;;5.13;100.00
69528;BME280;57136;51.986;4.468;2022-12-08T03:15:38;101068.13;;;5.14;100.00
69528;BME280;57136;51.986;4.468;2022-12-08T03:18:07;101064.13;;;4.96;100.00
69528;BME280;57136;51.986;4.468;2022-12-08T03:20:34;101045.63;;;4.82;100.00
69528;BME280;57136;51.986;4.468;2022-12-08T03:23:04;101059.31;;;4.79;100.00
69528;BME280;57136;51.986;4.468;2022-12-08T03:25:35;101061.91;;;4.79;100.00
69528;BME280;57136;51.986;4.468;2022-12-08T03:28:03;101053.25;;;4.77;100.00
69528;BME280;57136;51.986;4.468;2022-12-08T03:30:31;101054.94;;;4.77;100.00
69528;BME280;57136;51.986;4.468;2022-12-08T03:33:06;101042.78;;;4.73;100.00
69528;BME280;57136;51.986;4.468;2022-12-08T03:35:35;101042.09;;;4.78;100.00
69528;BME280;57136;51.986;4.468;2022-12-08T03:38:08;101036.53;;;4.93;100.00
69528;BME280;57136;51.986;4.468;2022-12-08T03:40:35;101041.72;;;4.95;100.00
69528;BME280;57136;51.986;4.468;2022-12-08T03:43:01;101038.41;;;4.99;100.00
69528;BME280;57136;51.986;4.468;2022-12-08T03:45:26;101027.94;;;4.94;100.00
69528;BME280;57136;51.986;4.468;2022-12-08T03:47:52;101035.09;;;5.03;100.00
69528;BME280;57136;51.986;4.468;2022-12-08T03:50:17;101027.44;;;5.06;100.00
69528;BME280;57136;51.986;4.468;2022-12-08T03:52:42;101024.84;;;5.06;100.00
69528;BME280;57136;51.986;4.468;2022-12-08T03:55:08;101019.34;;;5.24;100.00
69528;BME280;57136;51.986;4.468;2022-12-08T03:57:34;101015.16;;;5.28;100.00
69528;BME280;57136;51.986;4.468;2022-12-08T04:00:00;101017.13;;;5.37;100.00
69528;BME280;57136;51.986;4.468;2022-12-08T04:02:25;101013.78;;;5.41;100.00
69528;BME280;57136;51.986;4.468;2022-12-08T04:04:51;101003.56;;;5.46;100.00
69528;BME280;57136;51.986;4.468;2022-12-08T04:07:16;101006.09;;;5.43;100.00
69528;BME280;57136;51.986;4.468;2022-12-08T04:09:41;101013.28;;;5.22;100.00
69528;BME280;57136;51.986;4.468;2022-12-08T04:12:07;101012.97;;;4.84;100.00
69528;BME280;57136;51.986;4.468;2022-12-08T04:14:33;101030.13;;;4.82;100.00
69528;BME280;57136;51.986;4.468;2022-12-08T04:16:58;101038.97;;;4.61;100.00
69528;BME280;57136;51.986;4.468;2022-12-08T04:19:23;101044.63;;;4.24;100.00
69528;BME280;57136;51.986;4.468;2022-12-08T04:21:49;101036.34;;;3.58;100.00
69528;BME280;57136;51.986;4.468;2022-12-08T04:24:14;101032.91;;;3.35;100.00
69528;BME280;57136;51.986;4.468;2022-12-08T04:26:39;101028.81;;;3.40;100.00
69528;BME280;57136;51.986;4.468;2022-12-08T04:29:04;101025.22;;;3.36;100.00
69528;BME280;57136;51.986;4.468;2022-12-08T04:31:30;101033.25;;;3.44;100.00
69528;BME280;57136;51.986;4.468;2022-12-08T04:33:55;101029.75;;;3.42;100.00
69528;BME280;57136;51.986;4.468;2022-12-08T04:36:20;101028.00;;;3.65;100.00
69528;BME280;57136;51.986;4.468;2022-12-08T04:38:46;101029.41;;;3.81;100.00
69528;BME280;57136;51.986;4.468;2022-12-08T04:41:11;101021.91;;;3.87;100.00
69528;BME280;57136;51.986;4.468;2022-12-08T04:43:36;101023.19;;;4.00;100.00
69528;BME280;57136;51.986;4.468;2022-12-08T04:46:05;101019.06;;;4.05;100.00
69528;BME280;57136;51.986;4.468;2022-12-08T04:48:31;101006.78;;;3.98;100.00
69528;BME280;57136;51.986;4.468;2022-12-08T04:50:56;101000.56;;;4.17;100.00
69528;BME280;57136;51.986;4.468;2022-12-08T04:53:21;100995.00;;;4.31;100.00
69528;BME280;57136;51.986;4.468;2022-12-08T04:55:47;100991.75;;;4.38;100.00
69528;BME280;57136;51.986;4.468;2022-12-08T04:58:16;100985.13;;;4.45;100.00
69528;BME280;57136;51.986;4.468;2022-12-08T05:00:42;100980.59;;;4.39;100.00
69528;BME280;57136;51.986;4.468;2022-12-08T05:03:08;100983.28;;;4.42;100.00
69528;BME280;57136;51.986;4.468;2022-12-08T05:05:34;100985.19;;;4.48;100.00
69528;BME280;57136;51.986;4.468;2022-12-08T05:08:00;100982.59;;;4.48;100.00
69528;BME280;57136;51.986;4.468;2022-12-08T05:10:25;100976.06;;;4.58;100.00
69528;BME280;57136;51.986;4.468;2022-12-08T05:12:51;100974.44;;;4.61;100.00
69528;BME280;57136;51.986;4.468;2022-12-08T05:15:16;100972.06;;;4.69;100.00
69528;BME280;57136;51.986;4.468;2022-12-08T05:17:41;100971.53;;;4.79;100.00
69528;BME280;57136;51.986;4.468;2022-12-08T05:20:07;100963.16;;;4.87;100.00
69528;BME280;57136;51.986;4.468;2022-12-08T05:22:32;100958.97;;;4.92;100.00
69528;BME280;57136;51.986;4.468;2022-12-08T05:24:58;100962.56;;;4.95;100.00
69528;BME280;57136;51.986;4.468;2022-12-08T05:27:23;100969.91;;;4.83;100.00
69528;BME280;57136;51.986;4.468;2022-12-08T05:29:48;100966.91;;;4.69;100.00
69528;BME280;57136;51.986;4.468;2022-12-08T05:32:14;100969.78;;;4.78;100.00
69528;BME280;57136;51.986;4.468;2022-12-08T05:34:40;100963.19;;;4.59;100.00
69528;BME280;57136;51.986;4.468;2022-12-08T05:37:05;100975.38;;;4.65;100.00
69528;BME280;57136;51.986;4.468;2022-12-08T05:39:30;100980.22;;;4.54;100.00
69528;BME280;57136;51.986;4.468;2022-12-08T05:41:56;100972.84;;;4.38;100.00
69528;BME280;57136;51.986;4.468;2022-12-08T05:44:21;100978.47;;;4.53;100.00
69528;BME280;57136;51.986;4.468;2022-12-08T05:46:47;100974.53;;;4.37;100.00
69528;BME280;57136;51.986;4.468;2022-12-08T05:49:12;100976.00;;;4.29;100.00
69528;BME280;57136;51.986;4.468;2022-12-08T05:51:37;100993.03;;;4.51;100.00
69528;BME280;57136;51.986;4.468;2022-12-08T05:54:03;100993.28;;;4.59;100.00
69528;BME280;57136;51.986;4.468;2022-12-08T05:56:28;100996.50;;;4.52;100.00
69528;BME280;57136;51.986;4.468;2022-12-08T05:58:53;100998.38;;;4.57;100.00
69528;BME280;57136;51.986;4.468;2022-12-08T06:01:23;101003.31;;;4.49;100.00
69528;BME280;57136;51.986;4.468;2022-12-08T06:03:50;101001.16;;;4.10;100.00
69528;BME280;57136;51.986;4.468;2022-12-08T06:06:15;101001.38;;;3.90;100.00
69528;BME280;57136;51.986;4.468;2022-12-08T06:08:41;101000.03;;;3.76;100.00
69528;BME280;57136;51.986;4.468;2022-12-08T06:11:06;101005.81;;;3.69;100.00
69528;BME280;57136;51.986;4.468;2022-12-08T06:13:31;101001.13;;;3.83;100.00
69528;BME280;57136;51.986;4.468;2022-12-08T06:16:03;101003.69;;;3.83;100.00
69528;BME280;57136;51.986;4.468;2022-12-08T06:18:29;101004.31;;;3.75;100.00
69528;BME280;57136;51.986;4.468;2022-12-08T06:21:06;101011.25;;;3.78;100.00
69528;BME280;57136;51.986;4.468;2022-12-08T06:23:32;101013.31;;;3.63;100.00
69528;BME280;57136;51.986;4.468;2022-12-08T06:26:08;101004.72;;;3.62;100.00
69528;BME280;57136;51.986;4.468;2022-12-08T06:28:35;101002.47;;;3.47;100.00
69528;BME280;57136;51.986;4.468;2022-12-08T06:31:09;100999.38;;;3.33;100.00
69528;BME280;57136;51.986;4.468;2022-12-08T06:33:35;100999.25;;;3.54;100.00
69528;BME280;57136;51.986;4.468;2022-12-08T06:36:03;100987.66;;;3.66;100.00
69528;BME280;57136;51.986;4.468;2022-12-08T06:38:28;100988.94;;;3.79;100.00
69528;BME280;57136;51.986;4.468;2022-12-08T06:40:55;100990.13;;;3.88;100.00
69528;BME280;57136;51.986;4.468;2022-12-08T06:43:20;100988.50;;;3.90;100.00
69528;BME280;57136;51.986;4.468;2022-12-08T06:45:46;100978.22;;;3.92;100.00
69528;BME280;57136;51.986;4.468;2022-12-08T06:48:11;100985.31;;;3.98;100.00
69528;BME280;57136;51.986;4.468;2022-12-08T06:50:36;100979.44;;;4.02;100.00
69528;BME280;57136;51.986;4.468;2022-12-08T06:53:02;100984.47;;;3.99;100.00
69528;BME280;57136;51.986;4.468;2022-12-08T06:55:27;100978.50;;;4.00;100.00
69528;BME280;57136;51.986;4.468;2022-12-08T06:57:55;100979.47;;;4.03;100.00
69528;BME280;57136;51.986;4.468;2022-12-08T07:00:20;100968.31;;;4.04;100.00
69528;BME280;57136;51.986;4.468;2022-12-08T07:02:46;100967.00;;;3.90;100.00
69528;BME280;57136;51.986;4.468;2022-12-08T07:05:11;100969.84;;;3.98;100.00
69528;BME280;57136;51.986;4.468;2022-12-08T07:07:36;100964.59;;;3.96;100.00
69528;BME280;57136;51.986;4.468;2022-12-08T07:10:02;100963.03;;;4.00;100.00
69528;BME280;57136;51.986;4.468;2022-12-08T07:12:28;100963.84;;;3.99;100.00
69528;BME280;57136;51.986;4.468;2022-12-08T07:14:53;100964.88;;;4.04;100.00
69528;BME280;57136;51.986;4.468;2022-12-08T07:17:18;100961.28;;;3.99;100.00
69528;BME280;57136;51.986;4.468;2022-12-08T07:19:43;100966.00;;;4.12;100.00
69528;BME280;57136;51.986;4.468;2022-12-08T07:22:09;100961.88;;;4.17;100.00
69528;BME280;57136;51.986;4.468;2022-12-08T07:24:34;100959.28;;;4.17;100.00
69528;BME280;57136;51.986;4.468;2022-12-08T07:27:00;100955.91;;;4.20;100.00
69528;BME280;57136;51.986;4.468;2022-12-08T07:29:25;100963.00;;;4.26;100.00
69528;BME280;57136;51.986;4.468;2022-12-08T07:31:50;100957.97;;;4.30;100.00
69528;BME280;57136;51.986;4.468;2022-12-08T07:34:15;100957.84;;;4.26;100.00
69528;BME280;57136;51.986;4.468;2022-12-08T07:36:41;100964.47;;;4.19;100.00
69528;BME280;57136;51.986;4.468;2022-12-08T07:39:06;100969.94;;;4.01;100.00
69528;BME280;57136;51.986;4.468;2022-12-08T07:41:31;100969.94;;;4.01;100.00
69528;BME280;57136;51.986;4.468;2022-12-08T07:43:57;100976.91;;;4.05;100.00
69528;BME280;57136;51.986;4.468;2022-12-08T07:46:24;100969.00;;;3.99;100.00
69528;BME280;57136;51.986;4.468;2022-12-08T07:48:51;100970.91;;;4.04;100.00
69528;BME280;57136;51.986;4.468;2022-12-08T07:51:17;100967.25;;;3.98;100.00
69528;BME280;57136;51.986;4.468;2022-12-08T07:53:44;100962.91;;;3.97;100.00
69528;BME280;57136;51.986;4.468;2022-12-08T07:56:11;100962.59;;;3.87;100.00
69528;BME280;57136;51.986;4.468;2022-12-08T07:58:37;100959.34;;;3.93;100.00
69528;BME280;57136;51.986;4.468;2022-12-08T08:01:03;100964.31;;;3.87;100.00
69528;BME280;57136;51.986;4.468;2022-12-08T08:03:28;100950.28;;;3.79;100.00
69528;BME280;57136;51.986;4.468;2022-12-08T08:05:54;100956.28;;;4.05;100.00
69528;BME280;57136;51.986;4.468;2022-12-08T08:08:19;100950.25;;;4.03;100.00
69528;BME280;57136;51.986;4.468;2022-12-08T08:10:45;100950.06;;;3.98;100.00
69528;BME280;57136;51.986;4.468;2022-12-08T08:13:11;100954.97;;;3.90;100.00
69528;BME280;57136;51.986;4.468;2022-12-08T08:15:37;100951.81;;;3.99;100.00
69528;BME280;57136;51.986;4.468;2022-12-08T08:18:03;100955.91;;;4.20;100.00
69528;BME280;57136;51.986;4.468;2022-12-08T08:20:28;100956.13;;;4.26;100.00
69528;BME280;57136;51.986;4.468;2022-12-08T08:22:53;100957.28;;;4.09;100.00
69528;BME280;57136;51.986;4.468;2022-12-08T08:25:19;100959.91;;;4.10;100.00
69528;BME280;57136;51.986;4.468;2022-12-08T08:27:47;100966.06;;;4.14;100.00
69528;BME280;57136;51.986;4.468;2022-12-08T08:30:13;100956.84;;;4.22;100.00
69528;BME280;57136;51.986;4.468;2022-12-08T08:32:39;100959.75;;;4.33;100.00
69528;BME280;57136;51.986;4.468;2022-12-08T08:35:04;100969.91;;;4.27;100.00
69528;BME280;57136;51.986;4.468;2022-12-08T08:37:30;100970.06;;;4.31;100.00
69528;BME280;57136;51.986;4.468;2022-12-08T08:39:55;100981.81;;;4.23;100.00
69528;BME280;57136;51.986;4.468;2022-12-08T08:42:21;100994.00;;;4.01;100.00
69528;BME280;57136;51.986;4.468;2022-12-08T08:44:46;100994.69;;;3.96;100.00
69528;BME280;57136;51.986;4.468;2022-12-08T08:47:12;100983.06;;;3.83;100.00
69528;BME280;57136;51.986;4.468;2022-12-08T08:49:37;100985.91;;;3.90;100.00
69528;BME280;57136;51.986;4.468;2022-12-08T08:52:03;100989.53;;;3.96;100.00
69528;BME280;57136;51.986;4.468;2022-12-08T08:54:29;100988.50;;;3.90;100.00
69528;BME280;57136;51.986;4.468;2022-12-08T08:56:56;100997.78;;;4.11;100.00
69528;BME280;57136;51.986;4.468;2022-12-08T08:59:22;100999.69;;;4.17;100.00
69528;BME280;57136;51.986;4.468;2022-12-08T09:01:48;100995.16;;;4.10;100.00
69528;BME280;57136;51.986;4.468;2022-12-08T09:04:13;101002.72;;;4.05;100.00
69528;BME280;57136;51.986;4.468;2022-12-08T09:06:38;100999.16;;;4.01;100.00
69528;BME280;57136;51.986;4.468;2022-12-08T09:09:04;101000.13;;;3.79;100.00
69528;BME280;57136;51.986;4.468;2022-12-08T09:11:30;101009.06;;;3.89;100.00
69528;BME280;57136;51.986;4.468;2022-12-08T09:13:56;101008.06;;;3.85;100.00
69528;BME280;57136;51.986;4.468;2022-12-08T09:16:21;101013.63;;;3.72;100.00
69528;BME280;57136;51.986;4.468;2022-12-08T09:18:47;101014.38;;;3.69;100.00
69528;BME280;57136;51.986;4.468;2022-12-08T09:21:14;101013.84;;;3.54;100.00
69528;BME280;57136;51.986;4.468;2022-12-08T09:23:44;101013.03;;;3.55;100.00
69528;BME280;57136;51.986;4.468;2022-12-08T09:26:10;101007.50;;;3.44;100.00
69528;BME280;57136;51.986;4.468;2022-12-08T09:28:36;101008.88;;;3.34;100.00
69528;BME280;57136;51.986;4.468;2022-12-08T09:31:01;101002.81;;;3.34;100.00
69528;BME280;57136;51.986;4.468;2022-12-08T09:33:27;100999.53;;;3.38;100.00
69528;BME280;57136;51.986;4.468;2022-12-08T09:35:52;100984.59;;;3.52;100.00
69528;BME280;57136;51.986;4.468;2022-12-08T09:38:17;100976.38;;;3.62;100.00
69528;BME280;57136;51.986;4.468;2022-12-08T09:40:51;100976.63;;;3.70;100.00
69528;BME280;57136;51.986;4.468;2022-12-08T09:46:06;100966.66;;;3.55;100.00
69528;BME280;57136;51.986;4.468;2022-12-08T09:48:37;100974.19;;;3.74;100.00
69528;BME280;57136;51.986;4.468;2022-12-08T09:51:04;100979.78;;;3.87;100.00
69528;BME280;57136;51.986;4.468;2022-12-08T09:56:37;100974.66;;;3.88;100.00
69528;BME280;57136;51.986;4.468;2022-12-08T09:59:33;100977.25;;;3.88;100.00
69528;BME280;57136;51.986;4.468;2022-12-08T10:02:00;100979.56;;;4.07;100.00
69528;BME280;57136;51.986;4.468;2022-12-08T10:04:35;100975.38;;;4.10;100.00
69528;BME280;57136;51.986;4.468;2022-12-08T10:07:23;100981.78;;;3.96;100.00
69528;BME280;57136;51.986;4.468;2022-12-08T10:18:31;100990.34;;;3.95;100.00
69528;BME280;57136;51.986;4.468;2022-12-08T10:21:19;100986.50;;;3.83;100.00
69528;BME280;57136;51.986;4.468;2022-12-08T10:23:57;100980.97;;;3.97;100.00
69528;BME280;57136;51.986;4.468;2022-12-08T10:26:24;100983.53;;;3.71;100.00
69528;BME280;57136;51.986;4.468;2022-12-08T10:28:49;100983.69;;;3.51;100.00
69528;BME280;57136;51.986;4.468;2022-12-08T10:31:21;100976.50;;;3.42;100.00
69528;BME280;57136;51.986;4.468;2022-12-08T10:33:59;100971.25;;;3.64;100.00
69528;BME280;57136;51.986;4.468;2022-12-08T10:41:52;100979.22;;;3.96;100.00
69528;BME280;57136;51.986;4.468;2022-12-08T10:44:18;100979.16;;;3.94;100.00
69528;BME280;57136;51.986;4.468;2022-12-08T10:46:43;100980.75;;;3.90;100.00
69528;BME280;57136;51.986;4.468;2022-12-08T10:49:10;100972.31;;;3.95;100.00
69528;BME280;57136;51.986;4.468;2022-12-08T10:51:40;100964.78;;;4.01;100.00
69528;BME280;57136;51.986;4.468;2022-12-08T10:54:27;100951.19;;;4.07;100.00
69528;BME280;57136;51.986;4.468;2022-12-08T10:56:54;100931.44;;;4.07;100.00
69528;BME280;57136;51.986;4.468;2022-12-08T10:59:20;100916.66;;;4.01;100.00
69528;BME280;57136;51.986;4.468;2022-12-08T11:01:47;100906.66;;;4.12;100.00
69528;BME280;57136;51.986;4.468;2022-12-08T11:04:18;100907.69;;;4.17;100.00
69528;BME280;57136;51.986;4.468;2022-12-08T11:06:44;100909.75;;;4.28;100.00
69528;BME280;57136;51.986;4.468;2022-12-08T11:14:15;100898.00;;;4.38;100.00
69528;BME280;57136;51.986;4.468;2022-12-08T11:16:42;100889.06;;;4.55;100.00
69528;BME280;57136;51.986;4.468;2022-12-08T11:19:14;100888.84;;;4.47;100.00
69528;BME280;57136;51.986;4.468;2022-12-08T11:21:40;100890.72;;;4.53;100.00
69528;BME280;57136;51.986;4.468;2022-12-08T11:26:38;100891.09;;;4.65;100.00
69528;BME280;57136;51.986;4.468;2022-12-08T11:29:09;100893.34;;;4.84;100.00
69528;BME280;57136;51.986;4.468;2022-12-08T11:31:43;100891.84;;;4.92;100.00
69528;BME280;57136;51.986;4.468;2022-12-08T11:34:18;100882.50;;;4.97;100.00
69528;BME280;57136;51.986;4.468;2022-12-08T11:36:45;100885.94;;;4.96;100.00
69528;BME280;57136;51.986;4.468;2022-12-08T11:39:12;100890.31;;;4.99;100.00
69528;BME280;57136;51.986;4.468;2022-12-08T11:41:40;100906.94;;;4.78;100.00
69528;BME280;57136;51.986;4.468;2022-12-08T11:44:37;100938.50;;;4.40;100.00
69528;BME280;57136;51.986;4.468;2022-12-08T11:47:19;100942.47;;;4.29;100.00
69528;BME280;57136;51.986;4.468;2022-12-08T11:49:47;100947.47;;;3.98;100.00
69528;BME280;57136;51.986;4.468;2022-12-08T11:52:38;100941.16;;;3.63;100.00
69528;BME280;57136;51.986;4.468;2022-12-08T11:58:18;100932.22;;;3.28;100.00
69528;BME280;57136;51.986;4.468;2022-12-08T12:00:45;100920.84;;;3.46;100.00
69528;BME280;57136;51.986;4.468;2022-12-08T12:03:21;100912.88;;;3.40;100.00
69528;BME280;57136;51.986;4.468;2022-12-08T12:08:42;100885.84;;;3.53;100.00
69528;BME280;57136;51.986;4.468;2022-12-08T12:11:23;100879.63;;;3.46;100.00
69528;BME280;57136;51.986;4.468;2022-12-08T12:14:27;100881.16;;;3.41;100.00
69528;BME280;57136;51.986;4.468;2022-12-08T12:17:01;100884.75;;;3.46;100.00
69528;BME280;57136;51.986;4.468;2022-12-08T12:19:29;100891.25;;;3.60;100.00
69528;BME280;57136;51.986;4.468;2022-12-08T12:22:00;100884.03;;;3.76;100.00
69528;BME280;57136;51.986;4.468;2022-12-08T12:24:31;100872.19;;;3.55;100.00
69528;BME280;57136;51.986;4.468;2022-12-08T12:27:22;100858.09;;;3.45;100.00
69528;BME280;57136;51.986;4.468;2022-12-08T12:29:52;100852.13;;;3.47;100.00
69528;BME280;57136;51.986;4.468;2022-12-08T12:32:19;100857.44;;;3.51;100.00
69528;BME280;57136;51.986;4.468;2022-12-08T12:34:50;100854.34;;;3.62;100.00
69528;BME280;57136;51.986;4.468;2022-12-08T12:37:26;100857.75;;;3.60;100.00
69528;BME280;57136;51.986;4.468;2022-12-08T12:40:26;100851.63;;;3.57;100.00
69528;BME280;57136;51.986;4.468;2022-12-08T12:47:48;100837.63;;;4.31;100.00
69528;BME280;57136;51.986;4.468;2022-12-08T12:50:44;100832.03;;;4.46;100.00
69528;BME280;57136;51.986;4.468;2022-12-08T12:58:34;100839.28;;;6.29;100.00
69528;BME280;57136;51.986;4.468;2022-12-08T13:03:37;100840.25;;;6.34;99.73
69528;BME280;57136;51.986;4.468;2022-12-08T13:06:03;100840.09;;;6.26;99.02
69528;BME280;57136;51.986;4.468;2022-12-08T13:08:29;100843.22;;;6.11;98.97
69528;BME280;57136;51.986;4.468;2022-12-08T13:11:06;100842.22;;;5.71;99.46
69528;BME280;57136;51.986;4.468;2022-12-08T13:13:36;100839.53;;;5.66;100.00
69528;BME280;57136;51.986;4.468;2022-12-08T13:18:36;100853.34;;;5.33;100.00
69528;BME280;57136;51.986;4.468;2022-12-08T13:21:12;100846.19;;;5.23;100.00
69528;BME280;57136;51.986;4.468;2022-12-08T13:26:50;100837.69;;;4.95;100.00
69528;BME280;57136;51.986;4.468;2022-12-08T13:29:38;100829.09;;;4.96;100.00
69528;BME280;57136;51.986;4.468;2022-12-08T13:35:09;100826.50;;;4.94;100.00
69528;BME280;57136;51.986;4.468;2022-12-08T13:37:47;100830.56;;;4.86;100.00
69528;BME280;57136;51.986;4.468;2022-12-08T13:40:17;100825.91;;;4.73;100.00
69528;BME280;57136;51.986;4.468;2022-12-08T13:45:28;100816.59;;;4.47;100.00
69528;BME280;57136;51.986;4.468;2022-12-08T13:48:12;100815.03;;;4.54;100.00
69528;BME280;57136;51.986;4.468;2022-12-08T13:50:46;100815.88;;;4.53;100.00
69528;BME280;57136;51.986;4.468;2022-12-08T13:53:20;100815.22;;;4.60;100.00
69528;BME280;57136;51.986;4.468;2022-12-08T13:55:50;100816.19;;;4.64;100.00
69528;BME280;57136;51.986;4.468;2022-12-08T14:06:16;100807.22;;;5.15;100.00
69528;BME280;57136;51.986;4.468;2022-12-08T14:08:42;100803.25;;;4.62;100.00
69528;BME280;57136;51.986;4.468;2022-12-08T14:11:15;100810.59;;;4.48;100.00
69528;BME280;57136;51.986;4.468;2022-12-08T14:14:17;100812.34;;;4.20;100.00
69528;BME280;57136;51.986;4.468;2022-12-08T14:17:02;100818.53;;;4.26;100.00
69528;BME280;57136;51.986;4.468;2022-12-08T14:19:30;100825.44;;;4.27;100.00
69528;BME280;57136;51.986;4.468;2022-12-08T14:22:10;100827.09;;;4.25;100.00
69528;BME280;57136;51.986;4.468;2022-12-08T14:24:37;100825.25;;;4.20;100.00
69528;BME280;57136;51.986;4.468;2022-12-08T14:27:04;100828.59;;;3.89;100.00
69528;BME280;57136;51.986;4.468;2022-12-08T14:29:50;100816.94;;;3.73;100.00
69528;BME280;57136;51.986;4.468;2022-12-08T14:37:35;100827.41;;;3.79;100.00